Time;durP1;ratioP1;P1;durP2;ratioP2;P2;SDS_P1;SDS_P2;PMS_P1;PMS_P2;Temp;Humidity;BMP_temperature;BMP_pressure;BME280_temperature;BME280_humidity;BME280_pressure;Samples;Min_cycle;Max_cycle;Signal;HPM_P1;HPM_P2
2021/01/28 00:00:36;;;;;;;49.35;14.43;;;6.00;99.90;;;;;;4974294;28;20035;-95
2021/01/28 00:03:03;;;;;;;43.42;14.43;;;6.00;99.90;;;;;;4974577;28;20050;-95
2021/01/28 00:05:32;;;;;;;39.70;13.25;;;6.00;99.90;;;;;;4975316;28;20035;-95
2021/01/28 00:07:59;;;;;;;35.28;13.88;;;6.00;99.90;;;;;;4976096;28;20015;-94
2021/01/28 00:10:25;;;;;;;37.22;14.07;;;6.00;99.90;;;;;;4976049;28;20045;-95
2021/01/28 00:12:51;;;;;;;45.00;14.05;;;6.00;99.90;;;;;;4980476;28;20019;-96
2021/01/28 00:15:22;;;;;;;41.67;13.95;;;6.00;99.90;;;;;;4989888;28;20081;-96
2021/01/28 00:17:53;;;;;;;33.97;13.88;;;6.00;99.90;;;;;;5004246;28;20034;-95
2021/01/28 00:20:32;;;;;;;37.03;14.70;;;6.00;99.90;;;;;;4997310;28;20019;-95
2021/01/28 00:22:57;;;;;;;32.92;12.68;;;6.00;99.90;;;;;;5006410;28;20033;-95
2021/01/28 00:25:30;;;;;;;40.08;12.77;;;6.00;99.90;;;;;;4998118;28;20058;-96
2021/01/28 00:27:58;;;;;;;26.20;11.32;;;6.00;99.90;;;;;;4983552;28;20018;-96
2021/01/28 00:30:48;;;;;;;25.83;10.90;;;6.00;99.90;;;;;;4981639;28;20110;-95
2021/01/28 00:33:25;;;;;;;27.08;13.95;;;6.00;99.90;;;;;;4998251;28;20038;-96
2021/01/28 00:35:54;;;;;;;28.35;12.88;;;6.00;99.90;;;;;;4978983;28;20030;-94
2021/01/28 00:38:25;;;;;;;26.90;13.00;;;6.00;99.90;;;;;;5125081;23;20078;-93
2021/01/28 00:40:52;;;;;;;25.73;10.27;;;6.00;99.90;;;;;;5055954;28;20024;-94
2021/01/28 00:43:19;;;;;;;22.15;9.82;;;5.90;99.90;;;;;;5054266;28;20092;-96
2021/01/28 00:45:45;;;;;;;20.63;10.48;;;5.90;99.90;;;;;;5057204;28;20040;-94
2021/01/28 00:50:56;;;;;;;21.95;10.35;;;5.90;99.90;;;;;;5011884;28;20058;-94
2021/01/28 00:53:22;;;;;;;16.48;8.82;;;5.90;99.90;;;;;;4989123;28;20022;-96
2021/01/28 00:55:48;;;;;;;19.83;9.45;;;5.90;99.90;;;;;;4990736;28;20101;-96
2021/01/28 00:58:20;;;;;;;16.85;8.85;;;5.90;99.90;;;;;;5009866;28;20013;-95
2021/01/28 01:00:47;;;;;;;20.23;8.88;;;5.80;99.90;;;;;;4995745;28;20034;-94
2021/01/28 01:03:15;;;;;;;17.65;8.85;;;5.90;99.90;;;;;;4994649;28;20034;-93
2021/01/28 01:05:45;;;;;;;15.55;8.43;;;5.80;99.90;;;;;;5000347;28;20010;-95
2021/01/28 01:08:19;;;;;;;21.77;9.38;;;5.80;99.90;;;;;;4994618;28;20034;-95
2021/01/28 01:10:46;;;;;;;16.95;8.23;;;5.80;99.90;;;;;;5061912;23;20065;-96
2021/01/28 01:16:19;;;;;;;12.02;6.40;;;5.80;99.90;;;;;;5325225;22;20043;-96
2021/01/28 01:18:45;;;;;;;18.23;7.38;;;5.80;99.90;;;;;;5079858;28;20040;-95
2021/01/28 01:21:11;;;;;;;14.13;7.45;;;5.80;99.90;;;;;;5082792;28;20058;-96
2021/01/28 01:23:39;;;;;;;17.88;6.68;;;5.80;99.90;;;;;;5083260;28;20037;-95
2021/01/28 01:26:14;;;;;;;10.77;5.65;;;5.70;99.90;;;;;;5108605;22;20064;-96
2021/01/28 01:28:39;;;;;;;11.48;5.80;;;5.70;99.90;;;;;;5082638;28;20030;-96
2021/01/28 01:31:08;;;;;;;12.25;6.57;;;5.70;99.90;;;;;;5100789;28;20103;-96
2021/01/28 01:36:58;;;;;;;12.52;5.90;;;5.70;99.90;;;;;;5427704;22;20066;-96
2021/01/28 01:39:23;;;;;;;11.82;6.50;;;5.70;99.90;;;;;;5082326;28;20036;-95
2021/01/28 01:41:49;;;;;;;14.13;6.90;;;5.70;99.90;;;;;;5100282;28;20080;-95
2021/01/28 01:44:15;;;;;;;13.30;6.63;;;5.70;99.90;;;;;;5083002;28;20043;-94
2021/01/28 01:46:41;;;;;;;11.77;6.68;;;5.70;99.90;;;;;;5081363;28;20100;-93
2021/01/28 01:49:15;;;;;;;14.10;6.88;;;5.70;99.90;;;;;;5100465;28;20076;-94
2021/01/28 01:54:21;;;;;;;14.70;6.15;;;5.70;99.90;;;;;;5408675;22;20071;-95
2021/01/28 03:35:50;;;;;;;5.47;2.53;;;5.50;99.90;;;;;;5054786;28;20072;-95
2021/01/28 03:38:18;;;;;;;4.10;2.60;;;5.50;99.90;;;;;;5042177;28;20109;-95
2021/01/28 03:40:49;;;;;;;4.55;2.88;;;5.50;99.90;;;;;;5128110;23;20063;-95
2021/01/28 03:43:14;;;;;;;4.25;2.47;;;5.50;99.90;;;;;;5072840;28;20028;-95
2021/01/28 03:45:40;;;;;;;4.78;3.28;;;5.50;99.90;;;;;;5097733;28;20083;-96
2021/01/28 03:50:41;;;;;;;3.78;2.50;;;5.50;99.90;;;;;;5132946;22;20037;-94
2021/01/28 03:53:11;;;;;;;4.25;2.55;;;5.50;99.90;;;;;;5070911;28;20035;-94
2021/01/28 03:55:37;;;;;;;3.35;2.53;;;5.50;99.90;;;;;;5065355;28;20032;-95
2021/01/28 03:58:02;;;;;;;4.15;2.15;;;5.50;99.90;;;;;;5059009;28;20039;-95
2021/01/28 04:00:33;;;;;;;3.00;2.20;;;5.40;99.90;;;;;;5058211;28;20028;-95
2021/01/28 04:03:00;;;;;;;;;;;5.50;99.90;;;;;;5062902;28;20028;-96
2021/01/28 04:05:29;;;;;;;4.45;2.00;;;5.50;99.90;;;;;;5064804;28;19905;-96
2021/01/28 04:07:55;;;;;;;3.42;1.98;;;5.50;99.90;;;;;;5064698;28;20032;-94
2021/01/28 04:10:31;;;;;;;2.90;2.30;;;5.50;99.90;;;;;;5067729;28;20033;-96
2021/01/28 04:12:58;;;;;;;3.03;2.22;;;5.50;99.90;;;;;;5067866;28;20033;-96
2021/01/28 04:15:24;;;;;;;2.97;2.15;;;5.50;99.90;;;;;;5074964;28;20075;-96
2021/01/28 04:17:50;;;;;;;3.58;2.00;;;5.50;99.90;;;;;;5061641;28;20028;-93
2021/01/28 04:20:19;;;;;;;2.60;1.95;;;5.40;99.90;;;;;;5065258;28;20049;-94
2021/01/28 04:22:45;;;;;;;3.08;2.03;;;5.40;99.90;;;;;;5051233;28;20048;-93
2021/01/28 04:25:16;;;;;;;2.42;1.83;;;5.50;99.90;;;;;;5060272;28;20025;-94
2021/01/28 04:27:42;;;;;;;2.35;1.80;;;5.40;99.90;;;;;;5065767;28;20021;-94
2021/01/28 04:30:11;;;;;;;2.63;1.70;;;5.50;99.90;;;;;;5060226;28;20064;-94
2021/01/28 04:32:37;;;;;;;2.65;1.83;;;5.40;99.90;;;;;;5057076;28;20059;-94
2021/01/28 04:35:07;;;;;;;2.58;1.42;;;5.40;99.90;;;;;;5054982;28;20037;-94
2021/01/28 04:37:33;;;;;;;1.50;1.38;;;5.40;99.90;;;;;;5053029;28;20029;-93
2021/01/28 04:40:04;;;;;;;2.20;1.60;;;5.40;99.90;;;;;;5063782;28;20080;-95
2021/01/28 04:42:45;;;;;;;1.88;1.30;;;5.40;99.90;;;;;;5049510;28;20029;-95
2021/01/28 04:45:12;;;;;;;;;;;5.50;99.90;;;;;;5063145;28;20045;-95
2021/01/28 04:47:45;;;;;;;1.20;1.02;;;5.40;99.90;;;;;;5056656;28;19960;-93
2021/01/28 04:50:15;;;;;;;1.33;1.17;;;5.50;99.90;;;;;;5055683;28;20041;-94
2021/01/28 04:52:43;;;;;;;1.63;1.08;;;5.40;99.90;;;;;;5059777;28;20089;-93
2021/01/28 04:55:15;;;;;;;1.33;1.20;;;5.40;99.90;;;;;;5065637;28;20029;-95
2021/01/28 04:57:42;;;;;;;0.98;0.80;;;5.40;99.90;;;;;;5058406;28;20021;-95
2021/01/28 05:00:11;;;;;;;1.08;0.80;;;5.40;99.90;;;;;;5071767;28;20021;-95
2021/01/28 05:02:37;;;;;;;1.10;1.00;;;5.40;99.90;;;;;;5055077;28;20041;-95
2021/01/28 05:05:06;;;;;;;1.30;1.02;;;5.40;99.90;;;;;;5065965;28;20098;-96
2021/01/28 05:07:36;;;;;;;2.45;1.05;;;5.40;99.90;;;;;;5065279;28;20025;-95
2021/01/28 05:10:04;;;;;;;1.00;0.80;;;5.40;99.90;;;;;;5064958;28;20032;-96
2021/01/28 05:12:32;;;;;;;2.55;1.05;;;5.40;99.90;;;;;;5065260;28;20024;-95
2021/01/28 05:15:39;;;;;;;2.25;1.02;;;5.30;99.90;;;;;;5067510;28;20036;-96
2021/01/28 05:18:33;;;;;;;1.20;1.08;;;5.30;99.90;;;;;;5065398;28;20036;-95
2021/01/28 05:21:12;;;;;;;1.58;1.05;;;5.40;99.90;;;;;;5067823;28;20120;-95
2021/01/28 05:23:40;;;;;;;0.77;0.77;;;5.40;99.90;;;;;;5071089;28;20021;-96
2021/01/28 05:26:45;;;;;;;1.70;1.23;;;5.30;99.90;;;;;;5069698;28;20016;-96
2021/01/28 05:29:32;;;;;;;1.40;1.10;;;5.30;99.90;;;;;;5074261;28;20104;-96
2021/01/28 05:32:11;;;;;;;1.15;1.05;;;5.30;99.90;;;;;;5076183;28;20036;-96
2021/01/28 05:34:37;;;;;;;1.35;1.05;;;5.30;99.90;;;;;;5057476;28;20031;-96
2021/01/28 05:37:24;;;;;;;1.25;1.15;;;5.30;99.90;;;;;;5075462;28;20102;-96
2021/01/28 05:40:26;;;;;;;1.30;0.93;;;5.30;99.90;;;;;;5067217;28;20061;-96
2021/01/28 05:42:55;;;;;;;1.80;0.90;;;5.30;99.90;;;;;;5069700;28;20040;-96
2021/01/28 05:45:37;;;;;;;0.68;0.68;;;5.30;99.90;;;;;;5075127;28;20032;-96
2021/01/28 05:48:27;;;;;;;1.02;0.73;;;5.30;99.90;;;;;;5074616;28;20032;-96
2021/01/28 05:51:18;;;;;;;1.35;1.00;;;5.30;99.90;;;;;;5067530;28;20514;-96
2021/01/28 05:54:27;;;;;;;1.25;0.88;;;5.30;99.90;;;;;;5048529;28;20033;-94
2021/01/28 05:57:43;;;;;;;3.20;1.40;;;5.30;99.90;;;;;;4960761;29;20067;-94
2021/01/28 06:00:49;;;;;;;1.42;0.82;;;5.30;99.90;;;;;;4959172;28;20063;-94
2021/01/28 06:07:05;;;;;;;1.35;0.90;;;5.30;99.90;;;;;;4976560;29;20150;-95
2021/01/28 06:13:20;;;;;;;1.00;0.88;;;5.30;99.90;;;;;;5119194;22;20112;-96
2021/01/28 06:16:06;;;;;;;1.83;1.27;;;5.20;99.90;;;;;;5076956;28;20037;-94
2021/01/28 06:19:03;;;;;;;1.15;0.80;;;5.20;99.90;;;;;;5072120;28;20092;-95
2021/01/28 06:21:41;;;;;;;1.20;0.80;;;5.20;99.90;;;;;;5069367;28;20114;-95
2021/01/28 06:24:41;;;;;;;1.70;1.27;;;5.20;99.90;;;;;;5070921;28;20033;-94
2021/01/28 06:27:25;;;;;;;1.92;1.10;;;5.20;99.90;;;;;;5056171;28;20037;-93
2021/01/28 06:30:28;;;;;;;2.65;1.20;;;5.10;99.90;;;;;;5068173;28;20096;-95
2021/01/28 06:33:12;;;;;;;3.10;1.00;;;5.10;99.90;;;;;;5060659;28;20068;-96
2021/01/28 06:35:49;;;;;;;1.63;0.90;;;5.20;99.90;;;;;;5057687;28;20480;-95
2021/01/28 06:38:52;;;;;;;1.83;1.38;;;5.10;99.90;;;;;;5057137;28;20025;-95
2021/01/28 06:41:25;;;;;;;1.70;1.20;;;5.10;99.90;;;;;;5056842;28;20087;-96
2021/01/28 06:44:14;;;;;;;2.65;1.23;;;5.10;99.90;;;;;;5057638;28;20021;-94
2021/01/28 06:47:05;;;;;;;1.77;1.20;;;5.10;99.90;;;;;;5054770;28;20021;-95
2021/01/28 06:49:46;;;;;;;1.30;1.08;;;5.10;99.90;;;;;;5053974;28;20056;-96
2021/01/28 06:52:48;;;;;;;1.35;1.02;;;5.20;99.90;;;;;;5047384;28;20069;-96
2021/01/28 06:55:32;;;;;;;1.33;1.02;;;5.10;99.90;;;;;;4995755;28;20076;-96
2021/01/28 06:58:24;;;;;;;1.05;0.80;;;5.10;99.90;;;;;;5024687;28;20790;-96
2021/01/28 07:01:14;;;;;;;0.50;0.50;;;5.10;99.90;;;;;;5022130;28;20030;-95
2021/01/28 07:04:16;;;;;;;0.70;0.65;;;5.10;99.90;;;;;;5038999;28;20026;-94
2021/01/28 07:06:51;;;;;;;0.90;0.60;;;5.10;99.90;;;;;;5023498;28;20041;-96
2021/01/28 07:09:34;;;;;;;0.85;0.82;;;5.10;99.90;;;;;;5039221;28;20026;-95
2021/01/28 07:12:04;;;;;;;1.25;0.80;;;5.00;99.90;;;;;;5025318;28;20025;-94
2021/01/28 07:14:30;;;;;;;1.08;0.80;;;5.00;99.90;;;;;;5024535;28;20076;-96
2021/01/28 07:17:09;;;;;;;1.00;0.90;;;5.00;99.90;;;;;;5038369;28;20034;-95
2021/01/28 07:19:43;;;;;;;1.90;1.02;;;5.00;99.90;;;;;;5041084;28;20025;-93
2021/01/28 07:22:31;;;;;;;1.88;1.45;;;5.00;99.90;;;;;;5029680;28;20044;-96
2021/01/28 07:25:17;;;;;;;2.00;1.52;;;5.00;99.90;;;;;;5032402;28;21141;-96
2021/01/28 07:27:58;;;;;;;2.00;1.40;;;5.00;99.90;;;;;;5038150;28;20113;-95
2021/01/28 07:30:42;;;;;;;2.38;1.40;;;5.00;99.90;;;;;;5024077;28;20037;-96
2021/01/28 07:33:22;;;;;;;2.75;1.75;;;5.00;99.90;;;;;;5023206;28;20377;-95
2021/01/28 07:35:53;;;;;;;2.20;1.58;;;5.00;99.90;;;;;;5027234;28;20030;-95
2021/01/28 07:38:30;;;;;;;2.60;1.60;;;4.90;99.90;;;;;;5039865;28;20022;-94
2021/01/28 07:41:04;;;;;;;3.03;1.70;;;4.90;99.90;;;;;;5026915;28;20109;-95
2021/01/28 07:43:32;;;;;;;2.95;1.67;;;4.90;99.90;;;;;;5022664;28;20037;-94
2021/01/28 07:46:19;;;;;;;3.22;2.10;;;4.90;99.90;;;;;;5037443;28;20033;-95
2021/01/28 07:48:47;;;;;;;5.15;2.20;;;4.90;99.90;;;;;;5019111;28;20044;-94
2021/01/28 07:51:37;;;;;;;3.95;2.20;;;4.90;99.90;;;;;;5035973;28;20046;-93
2021/01/28 07:54:04;;;;;;;4.72;2.65;;;4.90;99.90;;;;;;5009186;28;20039;-94
2021/01/28 07:56:36;;;;;;;6.38;2.85;;;4.90;99.90;;;;;;5016451;28;20036;-93
2021/01/28 07:59:28;;;;;;;4.40;2.85;;;4.90;99.90;;;;;;5030414;28;20018;-95
2021/01/28 08:01:57;;;;;;;7.55;3.97;;;4.90;99.90;;;;;;5021083;28;20045;-95
2021/01/28 08:04:29;;;;;;;7.78;3.97;;;4.90;99.90;;;;;;5037902;28;20059;-93
2021/01/28 08:06:58;;;;;;;4.20;2.67;;;4.90;99.90;;;;;;5031180;28;20037;-95
2021/01/28 08:09:23;;;;;;;7.60;3.75;;;4.90;99.90;;;;;;5028774;28;20032;-94
2021/01/28 08:11:56;;;;;;;6.05;3.33;;;4.90;99.90;;;;;;5047091;28;20029;-95
2021/01/28 08:14:25;;;;;;;7.40;3.38;;;4.90;99.90;;;;;;5053614;28;20084;-95
2021/01/28 08:16:54;;;;;;;7.20;3.92;;;4.90;99.90;;;;;;5046112;28;20073;-95
2021/01/28 08:19:29;;;;;;;6.53;3.15;;;4.90;99.90;;;;;;5039937;28;20495;-96
2021/01/28 08:22:10;;;;;;;5.90;3.03;;;4.90;99.90;;;;;;5057869;28;20029;-95
2021/01/28 08:24:39;;;;;;;8.30;4.40;;;4.90;99.90;;;;;;5050107;28;20060;-95
2021/01/28 08:27:30;;;;;;;5.05;2.80;;;4.90;99.90;;;;;;5055137;28;20033;-93
2021/01/28 08:30:38;;;;;;;7.13;3.17;;;4.90;99.90;;;;;;5046329;28;20037;-95
2021/01/28 08:33:42;;;;;;;6.30;3.58;;;4.90;99.90;;;;;;5032743;28;20040;-95
2021/01/28 08:36:31;;;;;;;5.95;3.53;;;4.90;99.90;;;;;;5051409;28;20040;-94
2021/01/28 08:39:11;;;;;;;8.07;3.72;;;4.90;99.90;;;;;;5067715;28;20063;-94
2021/01/28 08:44:15;;;;;;;6.88;4.00;;;4.90;99.90;;;;;;5115196;22;20053;-94
2021/01/28 08:46:43;;;;;;;10.20;4.72;;;4.90;99.90;;;;;;5068723;28;20076;-94
2021/01/28 08:49:20;;;;;;;8.48;4.80;;;4.90;99.90;;;;;;5068937;28;20028;-96
2021/01/28 08:52:08;;;;;;;12.10;5.20;;;4.90;99.90;;;;;;5067104;28;20104;-93
2021/01/28 08:54:44;;;;;;;8.52;4.20;;;4.90;99.90;;;;;;5057226;28;20037;-94
2021/01/28 08:57:16;;;;;;;9.27;4.57;;;4.90;99.90;;;;;;5116102;22;20068;-95
2021/01/28 08:59:49;;;;;;;3.75;2.33;;;4.90;99.90;;;;;;5059222;28;20044;-94
2021/01/28 09:02:22;;;;;;;4.28;2.42;;;4.90;99.90;;;;;;5063648;28;20017;-94
2021/01/28 09:04:58;;;;;;;4.93;2.65;;;4.90;99.90;;;;;;5061814;28;20032;-96
2021/01/28 09:07:50;;;;;;;6.63;3.10;;;4.90;99.90;;;;;;5059732;28;20040;-95
2021/01/28 09:10:24;;;;;;;7.05;3.53;;;4.90;99.90;;;;;;5061238;28;20127;-95
2021/01/28 09:12:50;;;;;;;5.03;2.72;;;4.90;99.90;;;;;;5057181;28;20392;-95
2021/01/28 09:15:23;;;;;;;6.05;3.33;;;4.90;99.90;;;;;;5053898;28;20076;-96
2021/01/28 09:17:51;;;;;;;6.85;2.60;;;4.90;99.90;;;;;;5054552;28;20029;-94
2021/01/28 09:20:34;;;;;;;4.20;2.65;;;4.90;99.90;;;;;;5053817;28;20060;-95
2021/01/28 09:23:06;;;;;;;5.88;3.22;;;4.90;99.90;;;;;;5055199;28;20037;-95
2021/01/28 09:25:32;;;;;;;6.53;2.80;;;5.00;99.90;;;;;;5055126;28;20041;-94
2021/01/28 09:28:10;;;;;;;6.95;3.10;;;5.00;99.90;;;;;;5054967;28;20105;-95
2021/01/28 09:30:45;;;;;;;5.38;2.75;;;5.00;99.90;;;;;;5055088;28;20060;-95
2021/01/28 09:33:29;;;;;;;7.72;3.72;;;5.00;99.90;;;;;;5061399;28;20025;-95
2021/01/28 09:36:18;;;;;;;5.63;2.83;;;5.00;99.90;;;;;;5060770;28;20029;-96
2021/01/28 09:39:00;;;;;;;5.53;2.00;;;5.00;99.90;;;;;;5062365;28;20036;-96
2021/01/28 09:41:37;;;;;;;3.13;1.90;;;5.00;99.90;;;;;;5064173;28;20035;-95
2021/01/28 09:44:09;;;;;;;2.17;1.45;;;5.00;99.90;;;;;;5076314;28;20048;-95
2021/01/28 09:46:38;;;;;;;3.50;1.70;;;5.10;99.90;;;;;;5065652;28;20040;-96
2021/01/28 09:49:04;;;;;;;6.70;2.60;;;5.00;99.90;;;;;;5066328;28;20048;-96
2021/01/28 09:51:33;;;;;;;6.10;3.00;;;5.00;99.90;;;;;;5053116;28;20072;-96
2021/01/28 09:54:11;;;;;;;3.67;1.80;;;5.10;99.90;;;;;;5043794;28;20097;-96
2021/01/28 09:56:42;;;;;;;2.17;1.23;;;5.10;99.90;;;;;;5043297;28;20049;-96
2021/01/28 09:59:10;;;;;;;3.20;1.60;;;5.10;99.90;;;;;;5045762;28;20060;-96
2021/01/28 10:01:36;;;;;;;1.92;1.30;;;5.10;99.90;;;;;;5054539;28;20022;-96
2021/01/28 10:04:03;;;;;;;3.30;1.50;;;5.10;99.90;;;;;;5059560;28;20083;-95
2021/01/28 10:06:29;;;;;;;2.70;1.60;;;5.10;99.90;;;;;;5057766;28;20021;-95
2021/01/28 10:08:54;;;;;;;2.83;1.80;;;5.10;99.90;;;;;;5057875;28;20057;-95
2021/01/28 10:11:20;;;;;;;4.03;1.95;;;5.10;99.90;;;;;;5059225;28;20060;-96
2021/01/28 10:13:48;;;;;;;3.67;2.20;;;5.10;99.90;;;;;;5067084;28;20101;-95
2021/01/28 10:16:14;;;;;;;3.45;1.55;;;5.10;99.90;;;;;;5063860;28;20052;-96
2021/01/28 10:18:40;;;;;;;4.03;2.33;;;5.10;99.90;;;;;;5060674;28;20029;-96
2021/01/28 10:21:06;;;;;;;4.90;2.17;;;5.10;99.90;;;;;;5062541;28;20047;-95
2021/01/28 10:23:31;;;;;;;2.33;1.25;;;5.10;99.90;;;;;;5052588;28;20438;-94
2021/01/28 10:25:57;;;;;;;2.45;1.40;;;5.20;99.90;;;;;;5054032;28;20380;-95
2021/01/28 10:28:23;;;;;;;1.75;1.13;;;5.30;99.90;;;;;;5054540;28;20116;-94
2021/01/28 10:30:49;;;;;;;1.70;1.00;;;5.30;99.90;;;;;;5046386;28;20036;-94
2021/01/28 10:33:21;;;;;;;5.80;1.30;;;5.40;99.90;;;;;;5057538;28;20039;-95
2021/01/28 10:35:47;;;;;;;1.75;1.13;;;5.50;99.90;;;;;;5040717;28;20033;-92
2021/01/28 10:38:13;;;;;;;1.58;1.10;;;5.50;99.90;;;;;;5037390;28;20555;-94
2021/01/28 10:40:39;;;;;;;1.63;1.40;;;5.60;99.90;;;;;;5043610;28;20030;-94
2021/01/28 10:43:06;;;;;;;1.75;1.30;;;5.60;99.90;;;;;;5043491;28;20061;-94
2021/01/28 10:45:35;;;;;;;1.05;0.70;;;5.80;99.90;;;;;;5041947;28;20018;-95
2021/01/28 10:48:02;;;;;;;1.27;0.77;;;5.80;99.90;;;;;;5040582;28;20033;-93
2021/01/28 10:50:29;;;;;;;1.33;0.80;;;5.90;99.90;;;;;;5045201;28;20028;-93
2021/01/28 10:52:55;;;;;;;1.60;1.20;;;6.00;99.90;;;;;;5045979;28;20024;-94
2021/01/28 10:55:23;;;;;;;5.47;3.03;;;6.10;99.90;;;;;;5045337;28;20037;-94
2021/01/28 10:57:48;;;;;;;4.55;1.88;;;6.10;99.90;;;;;;5047389;28;20045;-94
2021/01/28 11:00:15;;;;;;;3.17;1.45;;;6.10;99.90;;;;;;5048202;28;20117;-94
2021/01/28 11:02:41;;;;;;;3.65;1.02;;;6.10;99.90;;;;;;5047324;28;20488;-93
2021/01/28 11:05:18;;;;;;;5.90;2.50;;;6.20;99.90;;;;;;5046235;28;20122;-93
2021/01/28 11:07:44;;;;;;;1.15;0.70;;;6.20;99.90;;;;;;5045023;28;20030;-94
2021/01/28 11:10:11;;;;;;;2.63;1.10;;;6.20;99.90;;;;;;5044058;28;20090;-93
2021/01/28 11:12:37;;;;;;;1.80;0.80;;;6.10;99.90;;;;;;5044015;28;20430;-94
2021/01/28 11:15:04;;;;;;;1.40;0.90;;;6.20;99.90;;;;;;5044717;28;20094;-94
2021/01/28 11:17:30;;;;;;;2.13;1.52;;;6.20;99.90;;;;;;5044747;28;20029;-93
2021/01/28 11:19:55;;;;;;;1.83;1.15;;;6.20;99.90;;;;;;5045398;28;20175;-93
2021/01/28 11:22:21;;;;;;;2.20;1.33;;;6.10;99.90;;;;;;5045562;28;20019;-95
2021/01/28 11:24:47;;;;;;;3.42;1.90;;;6.10;99.90;;;;;;5044744;28;20017;-95
2021/01/28 11:27:12;;;;;;;4.47;2.30;;;6.20;99.90;;;;;;5045220;28;20032;-95
2021/01/28 11:29:41;;;;;;;3.72;2.55;;;6.20;99.90;;;;;;5044549;28;20031;-94
2021/01/28 11:32:08;;;;;;;4.63;2.30;;;6.20;99.90;;;;;;5043959;28;20496;-94
2021/01/28 11:34:33;;;;;;;2.15;1.48;;;6.20;99.90;;;;;;5043939;28;20022;-93
2021/01/28 11:36:59;;;;;;;3.05;1.80;;;6.20;99.90;;;;;;5044481;28;20017;-93
2021/01/28 11:39:34;;;;;;;2.13;1.52;;;6.20;99.90;;;;;;5042796;28;20056;-95
2021/01/28 11:42:00;;;;;;;3.05;1.63;;;6.20;99.90;;;;;;5047011;28;20070;-95
2021/01/28 11:44:26;;;;;;;2.78;1.77;;;6.20;99.90;;;;;;5043693;28;20024;-95
2021/01/28 11:46:55;;;;;;;1.70;1.40;;;6.20;99.90;;;;;;5043553;28;20033;-93
2021/01/28 11:49:20;;;;;;;1.55;1.30;;;6.20;99.90;;;;;;5043505;28;20039;-94
2021/01/28 11:51:47;;;;;;;2.00;1.60;;;6.20;99.90;;;;;;5042033;28;20391;-93
2021/01/28 11:54:12;;;;;;;1.80;1.40;;;6.20;99.90;;;;;;5045508;28;20017;-93
2021/01/28 11:56:39;;;;;;;1.50;1.20;;;6.20;99.90;;;;;;5047403;28;20076;-94
2021/01/28 11:59:04;;;;;;;1.60;1.30;;;6.30;99.90;;;;;;5052775;28;20036;-93
2021/01/28 12:01:31;;;;;;;6.22;1.55;;;6.20;99.90;;;;;;5051777;28;20025;-93
2021/01/28 12:03:57;;;;;;;3.33;1.58;;;6.20;99.90;;;;;;5053420;28;20017;-93
2021/01/28 12:06:23;;;;;;;2.38;1.75;;;6.20;99.90;;;;;;5050609;28;20025;-96
2021/01/28 12:08:48;;;;;;;7.35;3.60;;;6.20;99.90;;;;;;5047242;28;20440;-94
2021/01/28 12:11:14;;;;;;;4.32;2.28;;;6.20;99.90;;;;;;5042517;28;20480;-93
2021/01/28 12:13:40;;;;;;;5.05;2.45;;;6.20;99.90;;;;;;5044173;28;20031;-92
2021/01/28 12:16:06;;;;;;;5.40;2.65;;;6.20;99.90;;;;;;5049224;28;20036;-94
2021/01/28 12:18:32;;;;;;;4.38;2.83;;;6.30;99.90;;;;;;5054586;28;20029;-94
2021/01/28 12:20:58;;;;;;;5.47;3.03;;;6.30;99.90;;;;;;5044216;28;20021;-95
2021/01/28 12:23:23;;;;;;;5.55;2.80;;;6.30;99.90;;;;;;5041710;28;20515;-93
2021/01/28 12:25:49;;;;;;;11.82;5.90;;;6.30;99.90;;;;;;5042465;28;20056;-92
2021/01/28 12:28:15;;;;;;;6.65;4.07;;;6.40;99.90;;;;;;5042296;28;20017;-92
2021/01/28 12:30:41;;;;;;;7.05;3.45;;;6.40;99.90;;;;;;5040138;28;20092;-93
2021/01/28 12:33:07;;;;;;;8.45;4.32;;;6.40;99.90;;;;;;5041390;28;20048;-93
2021/01/28 12:35:33;;;;;;;7.32;3.63;;;6.40;99.90;;;;;;5041119;28;20128;-93
2021/01/28 12:37:59;;;;;;;13.02;4.30;;;6.40;99.90;;;;;;5041946;28;20473;-94
2021/01/28 12:40:26;;;;;;;19.88;5.10;;;6.40;99.90;;;;;;5040292;28;20035;-93
2021/01/28 12:42:51;;;;;;;11.30;3.35;;;6.40;99.90;;;;;;5039793;28;20503;-94
2021/01/28 12:45:18;;;;;;;12.10;3.28;;;6.50;99.90;;;;;;5039678;28;20021;-93
2021/01/28 12:47:43;;;;;;;9.40;3.17;;;6.60;99.90;;;;;;5040433;28;20475;-94
2021/01/28 12:50:11;;;;;;;16.85;4.45;;;6.70;99.90;;;;;;5041421;28;20056;-93
2021/01/28 12:52:39;;;;;;;12.30;3.17;;;6.90;99.90;;;;;;5037261;28;20025;-93
2021/01/28 12:55:09;;;;;;;17.38;3.40;;;7.00;99.90;;;;;;5038549;28;20048;-93
2021/01/28 12:57:35;;;;;;;14.00;3.80;;;7.20;99.90;;;;;;5029814;28;20069;-93
2021/01/28 13:00:05;;;;;;;16.48;3.85;;;7.30;99.90;;;;;;5043069;28;20032;-95
2021/01/28 13:02:32;;;;;;;16.10;3.50;;;7.40;99.90;;;;;;5045002;28;20029;-93
2021/01/28 13:04:57;;;;;;;13.80;3.65;;;7.50;99.90;;;;;;5047044;28;20033;-94
2021/01/28 13:07:23;;;;;;;16.48;3.67;;;7.50;99.90;;;;;;5047859;28;20028;-94
2021/01/28 13:09:49;;;;;;;20.90;3.45;;;7.60;99.90;;;;;;5047618;28;20031;-93
2021/01/28 13:12:14;;;;;;;20.73;3.70;;;7.70;99.90;;;;;;5050646;28;20025;-93
2021/01/28 13:14:43;;;;;;;14.80;3.20;;;7.80;99.90;;;;;;5049462;28;20040;-93
2021/01/28 13:17:09;;;;;;;16.38;3.00;;;7.80;99.90;;;;;;5045326;28;20045;-93
2021/01/28 13:19:36;;;;;;;30.65;4.95;;;7.90;99.90;;;;;;5046182;28;20020;-93
2021/01/28 13:22:02;;;;;;;18.75;4.57;;;8.00;99.90;;;;;;5046893;28;20077;-94
2021/01/28 13:24:29;;;;;;;18.15;4.25;;;8.00;99.90;;;;;;5047590;28;20464;-95
2021/01/28 13:26:55;;;;;;;17.17;4.32;;;8.00;99.90;;;;;;5047928;28;20033;-95
2021/01/28 13:29:21;;;;;;;21.67;3.55;;;8.10;99.90;;;;;;5048397;28;20032;-93
2021/01/28 13:31:46;;;;;;;18.30;3.80;;;8.10;99.90;;;;;;5046324;28;20037;-94
2021/01/28 13:34:12;;;;;;;26.00;5.35;;;8.10;99.90;;;;;;5046250;28;20028;-93
2021/01/28 13:36:38;;;;;;;15.82;4.70;;;8.20;99.90;;;;;;5046439;28;20116;-92
2021/01/28 13:39:04;;;;;;;16.83;3.65;;;8.20;99.90;;;;;;5046666;28;20032;-93
2021/01/28 13:41:30;;;;;;;28.08;6.47;;;8.20;99.90;;;;;;5048421;28;20333;-93
2021/01/28 13:43:56;;;;;;;24.35;5.75;;;8.20;99.90;;;;;;5046189;28;20025;-93
2021/01/28 13:46:22;;;;;;;43.78;8.60;;;8.20;99.90;;;;;;5046151;28;20360;-93
2021/01/28 13:48:48;;;;;;;45.65;10.55;;;8.20;99.90;;;;;;5048710;28;20129;-91
2021/01/28 13:51:14;;;;;;;35.15;8.80;;;8.30;99.90;;;;;;5046104;28;20033;-92
2021/01/28 13:53:40;;;;;;;29.10;6.57;;;8.30;99.90;;;;;;5047483;28;20704;-93
2021/01/28 13:56:06;;;;;;;32.03;7.68;;;8.30;99.90;;;;;;5046556;28;20075;-92
2021/01/28 13:58:32;;;;;;;30.15;7.20;;;8.30;99.90;;;;;;5046072;28;20467;-92
2021/01/28 14:00:57;;;;;;;24.63;6.38;;;8.40;99.90;;;;;;5046229;28;20108;-92
2021/01/28 14:03:23;;;;;;;28.40;8.65;;;8.30;99.90;;;;;;5046520;28;20029;-92
2021/01/28 14:05:49;;;;;;;32.30;8.43;;;8.40;99.90;;;;;;5046064;28;20028;-92
2021/01/28 14:08:15;;;;;;;33.40;8.55;;;8.30;99.90;;;;;;5046806;28;20033;-92
2021/01/28 14:10:40;;;;;;;29.45;8.35;;;8.30;99.90;;;;;;5045707;28;20041;-93
2021/01/28 14:13:06;;;;;;;22.58;7.25;;;8.30;99.90;;;;;;5045300;28;20033;-93
2021/01/28 14:15:34;;;;;;;26.83;8.60;;;8.40;99.90;;;;;;5043388;28;20033;-93
2021/01/28 14:18:00;;;;;;;36.60;7.57;;;8.40;99.90;;;;;;5041524;28;20111;-93
2021/01/28 14:20:29;;;;;;;25.33;8.18;;;8.40;99.90;;;;;;5045342;28;20096;-93
2021/01/28 14:22:56;;;;;;;26.60;7.68;;;8.40;99.90;;;;;;5048938;28;20073;-93
2021/01/28 14:25:25;;;;;;;31.08;6.65;;;8.40;99.90;;;;;;5046639;28;20024;-93
2021/01/28 14:27:51;;;;;;;38.13;8.25;;;8.40;99.90;;;;;;5044773;28;20707;-93
2021/01/28 14:30:21;;;;;;;34.55;8.55;;;8.40;99.90;;;;;;5044464;28;20131;-91
2021/01/28 14:32:47;;;;;;;30.23;9.52;;;8.50;99.90;;;;;;5044639;28;20025;-91
2021/01/28 14:35:17;;;;;;;30.55;7.25;;;8.50;99.90;;;;;;5044409;28;20017;-93
2021/01/28 14:37:43;;;;;;;;;;;8.50;99.90;;;;;;5044671;28;20017;-92
2021/01/28 14:40:09;;;;;;;24.55;6.18;;;8.50;99.90;;;;;;5076438;28;19913;-94
2021/01/28 14:42:35;;;;;;;32.83;5.40;;;8.50;99.90;;;;;;5042137;28;20025;-92
2021/01/28 14:45:03;;;;;;;32.55;6.70;;;8.50;99.90;;;;;;5042312;28;20032;-92
2021/01/28 14:47:28;;;;;;;33.55;5.35;;;8.60;99.90;;;;;;5042203;28;20480;-93
2021/01/28 14:49:54;;;;;;;26.30;4.63;;;8.60;99.90;;;;;;5044101;28;20031;-92
2021/01/28 14:52:20;;;;;;;34.45;4.57;;;8.60;99.90;;;;;;5041192;28;20117;-91
2021/01/28 14:54:45;;;;;;;29.48;4.93;;;8.60;99.90;;;;;;5043380;28;20029;-92
2021/01/28 14:57:11;;;;;;;21.88;4.97;;;8.60;99.90;;;;;;5042422;28;20052;-93
2021/01/28 14:59:37;;;;;;;33.35;7.15;;;8.60;99.90;;;;;;5042208;28;20024;-92
2021/01/28 15:02:02;;;;;;;25.02;4.32;;;8.60;99.90;;;;;;5042545;28;20051;-92
2021/01/28 15:04:28;;;;;;;20.10;4.03;;;8.60;99.90;;;;;;5042413;28;20021;-94
2021/01/28 15:06:54;;;;;;;33.65;4.97;;;8.60;99.90;;;;;;5043550;28;20048;-93
2021/01/28 15:09:20;;;;;;;22.13;3.72;;;8.60;99.90;;;;;;5043029;28;20369;-93
2021/01/28 15:11:45;;;;;;;27.23;5.68;;;8.70;99.90;;;;;;5041690;28;20467;-91
2021/01/28 15:14:11;;;;;;;25.58;4.07;;;8.70;99.90;;;;;;5042004;28;20028;-93
2021/01/28 15:16:37;;;;;;;26.20;4.75;;;8.70;99.90;;;;;;5040669;28;20527;-93
2021/01/28 15:19:03;;;;;;;36.13;5.85;;;8.70;99.90;;;;;;5041552;28;20372;-93